createdAt,value
2017-10-05T00:01:40.405Z,13.40
2017-10-05T00:04:08.794Z,14.25
2017-10-05T00:06:37.175Z,19.20
2017-10-05T00:09:05.574Z,17.80
2017-10-05T00:11:33.191Z,13.48
2017-10-05T00:14:00.806Z,20.35
2017-10-05T00:16:28.418Z,16.30
2017-10-05T00:18:56.011Z,12.75
2017-10-05T00:21:23.623Z,17.10
2017-10-05T00:23:51.281Z,12.98
2017-10-05T00:26:18.870Z,11.90
2017-10-05T00:28:46.487Z,19.55
2017-10-05T00:31:14.089Z,17.87
2017-10-05T00:33:41.714Z,9.52
2017-10-05T00:36:09.351Z,23.05
2017-10-05T00:38:36.938Z,12.20
2017-10-05T00:41:04.523Z,12.63
2017-10-05T00:43:32.137Z,12.48
2017-10-05T00:45:59.774Z,25.42
2017-10-05T00:48:28.121Z,9.98
2017-10-05T00:50:55.750Z,14.27
2017-10-05T00:53:23.386Z,7.53
2017-10-05T00:55:50.990Z,14.35
2017-10-05T00:58:18.640Z,12.82
2017-10-05T01:00:46.322Z,9.70
2017-10-05T01:03:14.021Z,11.80
2017-10-05T01:05:41.661Z,11.32
2017-10-05T01:08:09.254Z,11.32
2017-10-05T01:10:36.882Z,14.18
2017-10-05T01:13:04.474Z,15.20
2017-10-05T01:15:32.057Z,10.15
2017-10-05T01:17:59.680Z,14.32
2017-10-05T01:20:27.322Z,11.70
2017-10-05T01:22:57.434Z,9.65
2017-10-05T01:25:25.112Z,9.68
2017-10-05T01:27:52.762Z,11.93
2017-10-05T01:30:20.420Z,19.75
2017-10-05T01:32:48.075Z,12.23
2017-10-05T01:35:15.666Z,15.93
2017-10-05T01:37:43.288Z,14.87
2017-10-05T01:40:10.925Z,16.80
2017-10-05T01:42:38.515Z,11.85
2017-10-05T01:45:06.186Z,12.85
2017-10-05T01:47:33.773Z,17.35
2017-10-05T01:50:02.171Z,9.52
2017-10-05T01:52:29.818Z,17.20
2017-10-05T01:54:58.207Z,18.62
2017-10-05T01:57:26.632Z,19.50
2017-10-05T01:59:54.250Z,14.00
2017-10-05T02:02:21.875Z,17.33
2017-10-05T02:04:49.512Z,9.02
2017-10-05T02:07:17.173Z,17.83
2017-10-05T02:09:44.751Z,17.35
2017-10-05T02:12:12.350Z,14.55
2017-10-05T02:14:40.734Z,20.85
2017-10-05T02:17:08.357Z,18.77
2017-10-05T02:19:35.983Z,12.85
2017-10-05T02:22:03.612Z,9.52
2017-10-05T02:24:32.005Z,14.50
2017-10-05T02:26:59.717Z,11.75
2017-10-05T02:29:27.339Z,18.37
2017-10-05T02:31:54.966Z,13.75
2017-10-05T02:34:23.353Z,7.28
2017-10-05T02:36:51.788Z,11.15
2017-10-05T02:39:19.403Z,14.98
2017-10-05T02:41:47.090Z,10.48
2017-10-05T02:44:14.708Z,21.17
2017-10-05T02:46:42.324Z,7.62
2017-10-05T02:49:09.950Z,12.02
2017-10-05T02:51:37.569Z,13.40
2017-10-05T02:54:05.190Z,10.90
2017-10-05T02:56:32.831Z,20.10
2017-10-05T02:59:01.227Z,12.85
2017-10-05T03:01:28.822Z,17.10
2017-10-05T03:03:56.458Z,14.73
2017-10-05T03:06:24.083Z,13.88
2017-10-05T03:08:51.704Z,7.00
2017-10-05T03:11:19.280Z,22.37
2017-10-05T03:13:46.872Z,12.40
2017-10-05T03:16:14.457Z,11.63
2017-10-05T03:18:42.087Z,19.90
2017-10-05T03:21:09.712Z,14.57
2017-10-05T03:23:37.345Z,16.70
2017-10-05T03:26:04.951Z,14.15
2017-10-05T03:28:32.636Z,10.35
2017-10-05T03:31:00.991Z,8.32
2017-10-05T03:33:28.549Z,25.83
2017-10-05T03:35:56.171Z,10.95
2017-10-05T03:38:23.798Z,18.35
2017-10-05T03:40:51.463Z,15.07
2017-10-05T03:43:19.870Z,12.32
2017-10-05T03:45:47.502Z,13.13
2017-10-05T03:48:15.164Z,13.65
2017-10-05T03:50:42.793Z,21.67
2017-10-05T03:53:10.436Z,10.82
2017-10-05T03:55:38.034Z,13.00
2017-10-05T03:58:05.638Z,9.77
2017-10-05T04:00:33.306Z,14.00
2017-10-05T04:03:00.909Z,17.10
2017-10-05T04:05:28.537Z,15.18
2017-10-05T04:07:56.222Z,24.87
2017-10-05T04:10:23.864Z,15.65
2017-10-05T04:12:51.529Z,23.05
2017-10-05T04:15:19.120Z,13.68
2017-10-05T04:17:46.794Z,14.52
2017-10-05T04:20:14.398Z,12.30
2017-10-05T04:22:42.014Z,16.52
2017-10-05T04:25:09.645Z,11.65
2017-10-05T04:27:37.254Z,28.65
2017-10-05T04:30:04.862Z,14.87
2017-10-05T04:32:32.450Z,22.87
2017-10-05T04:35:00.059Z,19.83
2017-10-05T04:37:27.675Z,15.60
2017-10-05T04:39:55.291Z,17.25
2017-10-05T04:42:22.906Z,19.80
2017-10-05T04:44:50.524Z,23.87
2017-10-05T04:47:18.142Z,16.08
2017-10-05T04:49:45.799Z,14.75
2017-10-05T04:52:14.141Z,19.35
2017-10-05T04:54:41.754Z,25.45
2017-10-05T04:57:09.365Z,18.83
2017-10-05T04:59:37.020Z,21.05
2017-10-05T05:02:04.630Z,16.05
2017-10-05T05:04:33.004Z,17.10
2017-10-05T05:07:00.576Z,13.45
2017-10-05T05:09:28.189Z,33.13
2017-10-05T05:11:55.812Z,18.62
2017-10-05T05:14:23.383Z,19.50
2017-10-05T05:16:51.014Z,20.85
2017-10-05T05:19:18.608Z,13.85
2017-10-05T05:21:46.258Z,24.08
2017-10-05T05:24:13.892Z,20.90
2017-10-05T05:26:42.292Z,18.33
2017-10-05T05:29:09.886Z,22.48
2017-10-05T05:31:37.494Z,15.95
2017-10-05T05:34:05.110Z,18.27
2017-10-05T05:36:32.783Z,16.15
2017-10-05T05:39:00.404Z,17.98
2017-10-05T05:41:28.026Z,22.25
2017-10-05T05:43:55.655Z,23.58
2017-10-05T05:46:23.267Z,20.83
2017-10-05T05:48:50.833Z,18.62
2017-10-05T05:51:18.474Z,12.98
2017-10-05T05:53:46.097Z,10.55
2017-10-05T05:56:13.718Z,19.45
2017-10-05T05:58:41.346Z,14.50
2017-10-05T06:01:08.984Z,13.73
2017-10-05T06:03:36.590Z,11.10
2017-10-05T06:06:04.982Z,18.55
2017-10-05T06:08:32.584Z,20.08
2017-10-05T06:11:00.194Z,15.15
2017-10-05T06:13:28.631Z,20.80
2017-10-05T06:15:56.733Z,12.80
2017-10-05T06:18:26.219Z,18.12
2017-10-05T06:20:53.864Z,15.85
2017-10-05T06:23:21.506Z,16.70
2017-10-05T06:25:49.225Z,17.10
2017-10-05T06:28:16.843Z,20.12
2017-10-05T06:30:44.489Z,14.25
2017-10-05T06:33:12.069Z,16.12
2017-10-05T06:35:39.644Z,24.90
2017-10-05T06:38:07.217Z,15.25
2017-10-05T06:40:35.483Z,20.15
2017-10-05T06:43:05.188Z,13.95
2017-10-05T06:45:32.865Z,20.90
2017-10-05T06:48:00.597Z,17.80
2017-10-05T06:50:30.123Z,19.33
2017-10-05T06:52:57.737Z,15.07
2017-10-05T06:55:25.344Z,15.02
2017-10-05T06:57:55.125Z,16.75
2017-10-05T07:00:22.696Z,19.25
2017-10-05T07:02:50.277Z,17.65
2017-10-05T07:05:18.422Z,14.02
2017-10-05T07:07:45.961Z,16.08
2017-10-05T07:10:13.583Z,17.37
2017-10-05T07:12:41.165Z,15.43
2017-10-05T07:15:08.788Z,14.07
2017-10-05T07:17:36.408Z,16.55
2017-10-05T07:20:04.063Z,15.05
2017-10-05T07:22:31.681Z,10.63
2017-10-05T07:24:59.311Z,10.57
2017-10-05T07:27:28.348Z,9.02
2017-10-05T07:29:56.263Z,9.02
2017-10-05T07:32:23.833Z,14.50
2017-10-05T07:34:51.446Z,11.02
2017-10-05T07:37:19.064Z,8.02
2017-10-05T07:39:46.674Z,8.20
2017-10-05T07:42:15.094Z,14.90
2017-10-05T07:44:42.710Z,5.55
2017-10-05T07:47:10.374Z,5.30
2017-10-05T07:49:38.764Z,5.85
2017-10-05T07:52:07.159Z,5.28
2017-10-05T07:54:34.828Z,4.20
2017-10-05T07:57:02.443Z,8.43
2017-10-05T07:59:30.067Z,4.47
2017-10-05T08:01:57.694Z,4.75
2017-10-05T08:04:25.309Z,4.62
2017-10-05T08:06:52.942Z,3.40
2017-10-05T08:09:20.560Z,6.15
2017-10-05T08:11:48.247Z,3.72
2017-10-05T08:14:15.859Z,4.07
2017-10-05T08:16:43.564Z,9.90
2017-10-05T08:19:11.966Z,4.53
2017-10-05T08:21:40.569Z,5.60
2017-10-05T08:24:12.951Z,4.97
2017-10-05T08:26:43.471Z,5.35
2017-10-05T08:29:14.375Z,4.43
2017-10-05T08:31:42.512Z,6.70
2017-10-05T08:34:10.876Z,5.62
2017-10-05T08:36:38.489Z,10.13
2017-10-05T08:39:06.099Z,7.03
2017-10-05T08:41:33.899Z,7.28
2017-10-05T08:44:02.308Z,4.85
2017-10-05T08:46:29.974Z,4.93
2017-10-05T08:48:57.595Z,5.95
2017-10-05T08:51:25.174Z,3.30
2017-10-05T08:53:54.733Z,4.90
2017-10-05T08:56:22.361Z,5.40
2017-10-05T08:58:49.980Z,8.13
2017-10-05T09:01:17.818Z,10.85
2017-10-05T09:03:45.667Z,14.68
2017-10-05T09:06:13.319Z,9.73
2017-10-05T09:08:41.009Z,9.68
2017-10-05T09:11:17.064Z,8.88
2017-10-05T09:13:44.679Z,9.60
2017-10-05T09:16:12.341Z,8.43
2017-10-05T09:18:40.795Z,12.65
2017-10-05T09:21:08.408Z,13.70
2017-10-05T09:23:36.029Z,5.80
2017-10-05T09:26:03.644Z,8.38
2017-10-05T09:28:31.260Z,7.90
2017-10-05T09:30:59.642Z,10.88
2017-10-05T09:33:28.030Z,43.90
2017-10-05T09:35:57.694Z,97.28
2017-10-05T09:38:25.563Z,73.10
2017-10-05T09:40:54.170Z,74.90
2017-10-05T09:43:21.861Z,16.62
2017-10-05T09:45:50.250Z,10.00
2017-10-05T09:48:17.905Z,5.57
2017-10-05T09:50:48.742Z,4.22
2017-10-05T09:53:18.169Z,7.35
2017-10-05T09:55:45.745Z,3.53
2017-10-05T09:58:15.403Z,7.68
2017-10-05T10:00:43.803Z,2.45
2017-10-05T10:03:11.433Z,3.03
2017-10-05T10:05:39.051Z,5.05
2017-10-05T10:08:06.623Z,5.53
2017-10-05T10:10:34.204Z,4.20
2017-10-05T10:13:02.817Z,3.95
2017-10-05T10:15:37.962Z,5.05
2017-10-05T10:18:05.598Z,2.87
2017-10-05T10:20:34.181Z,2.40
2017-10-05T10:23:02.563Z,2.45
2017-10-05T10:25:30.942Z,3.62
2017-10-05T10:27:59.345Z,3.95
2017-10-05T10:30:26.978Z,4.60
2017-10-05T10:32:54.608Z,7.95
2017-10-05T10:35:22.598Z,7.28
2017-10-05T10:37:50.211Z,3.10
2017-10-05T10:40:17.801Z,4.43
2017-10-05T10:42:45.465Z,1.77
2017-10-05T10:45:13.096Z,8.07
2017-10-05T10:47:40.762Z,2.40
2017-10-05T10:50:08.373Z,4.05
2017-10-05T10:52:35.979Z,5.05
2017-10-05T10:55:03.563Z,6.68
2017-10-05T10:57:31.222Z,7.20
2017-10-05T10:59:58.813Z,4.90
2017-10-05T11:02:26.445Z,10.95
2017-10-05T11:04:54.083Z,5.40
2017-10-05T11:07:21.985Z,4.62
2017-10-05T11:09:49.643Z,3.53
2017-10-05T11:12:17.262Z,4.53
2017-10-05T11:14:44.874Z,6.43
2017-10-05T11:17:12.462Z,4.80
2017-10-05T11:19:40.888Z,4.53
2017-10-05T11:22:08.498Z,11.63
2017-10-05T11:24:36.846Z,6.18
2017-10-05T11:27:04.480Z,4.40
2017-10-05T11:29:32.078Z,6.78
2017-10-05T11:31:59.718Z,5.37
2017-10-05T11:34:27.408Z,4.20
2017-10-05T11:36:55.045Z,8.55
2017-10-05T11:39:22.710Z,10.13
2017-10-05T11:41:50.346Z,14.63
2017-10-05T11:44:17.937Z,10.20
2017-10-05T11:46:45.550Z,9.48
2017-10-05T11:49:13.174Z,8.57
2017-10-05T11:51:40.749Z,11.18
2017-10-05T11:54:08.398Z,8.55
2017-10-05T11:56:36.017Z,22.48
2017-10-05T11:59:03.638Z,5.25
2017-10-05T12:01:31.262Z,11.48
2017-10-05T12:03:58.892Z,10.50
2017-10-05T12:06:26.514Z,24.87
2017-10-05T12:08:54.840Z,9.68
2017-10-05T12:11:22.420Z,18.58
2017-10-05T12:13:50.052Z,11.63
2017-10-05T12:16:17.642Z,20.90
2017-10-05T12:18:46.043Z,6.25
2017-10-05T12:21:15.076Z,7.62
2017-10-05T12:23:43.644Z,4.90
2017-10-05T12:26:12.050Z,10.45
2017-10-05T12:28:39.702Z,7.22
2017-10-05T12:31:07.376Z,9.52
2017-10-05T12:33:35.380Z,8.20
2017-10-05T12:36:03.403Z,6.72
2017-10-05T12:38:31.060Z,24.55
2017-10-05T12:40:59.600Z,4.43
2017-10-05T12:43:27.245Z,6.25
2017-10-05T12:45:55.027Z,7.05
2017-10-05T12:48:23.911Z,5.50
2017-10-05T12:50:51.545Z,6.53
2017-10-05T12:53:19.410Z,6.00
2017-10-05T12:55:46.988Z,10.57
2017-10-05T12:58:14.612Z,8.10
2017-10-05T13:00:42.240Z,5.65
2017-10-05T13:03:10.179Z,5.53
2017-10-05T13:05:37.819Z,4.03
2017-10-05T13:08:07.104Z,7.97
2017-10-05T13:10:34.778Z,6.05
2017-10-05T13:13:02.413Z,6.93
2017-10-05T13:15:30.091Z,5.53
2017-10-05T13:17:57.671Z,5.47
2017-10-05T13:20:26.874Z,8.13
2017-10-05T13:22:54.475Z,7.60
2017-10-05T13:25:22.061Z,7.82
2017-10-05T13:27:50.465Z,4.37
2017-10-05T13:30:18.198Z,6.03
2017-10-05T13:32:46.551Z,5.43
2017-10-05T13:35:14.178Z,3.05
2017-10-05T13:37:41.762Z,5.32
2017-10-05T13:40:09.392Z,4.82
2017-10-05T13:42:37.016Z,7.93
2017-10-05T13:45:04.618Z,9.32
2017-10-05T13:47:32.240Z,4.25
2017-10-05T13:50:00.747Z,3.80
2017-10-05T13:52:30.682Z,9.50
2017-10-05T13:54:58.287Z,4.55
2017-10-05T13:57:25.959Z,4.93
2017-10-05T13:59:53.798Z,3.60
2017-10-05T14:02:21.444Z,6.40
2017-10-05T14:04:49.094Z,5.30
2017-10-05T14:07:17.138Z,5.05
2017-10-05T14:09:44.716Z,1.83
2017-10-05T14:12:12.470Z,5.95
2017-10-05T14:14:40.356Z,4.68
2017-10-05T14:17:07.936Z,2.40
2017-10-05T14:19:35.523Z,2.80
2017-10-05T14:22:03.189Z,2.58
2017-10-05T14:24:31.324Z,2.90
2017-10-05T14:26:59.579Z,2.15
2017-10-05T14:29:28.139Z,8.25
2017-10-05T14:31:55.785Z,8.93
2017-10-05T14:34:23.432Z,3.28
2017-10-05T14:36:51.053Z,2.83
2017-10-05T14:39:18.683Z,6.03
2017-10-05T14:41:46.909Z,3.33
2017-10-05T14:44:16.711Z,8.38
2017-10-05T14:46:45.152Z,1.30
2017-10-05T14:49:14.067Z,5.55
2017-10-05T14:51:41.895Z,6.00
2017-10-05T14:54:09.887Z,1.10
2017-10-05T14:56:37.560Z,3.17
2017-10-05T14:59:05.182Z,4.07
2017-10-05T15:01:33.062Z,2.47
2017-10-05T15:04:00.965Z,1.85
2017-10-05T15:06:28.711Z,11.18
2017-10-05T15:08:57.355Z,2.20
2017-10-05T15:11:25.119Z,3.97
2017-10-05T15:13:53.096Z,5.55
2017-10-05T15:16:20.869Z,2.35
2017-10-05T15:18:48.696Z,10.10
2017-10-05T15:21:17.122Z,3.65
2017-10-05T15:23:44.950Z,2.90
2017-10-05T15:26:12.640Z,2.10
2017-10-05T15:28:40.294Z,1.15
2017-10-05T15:31:07.943Z,2.40
2017-10-05T15:33:38.178Z,2.03
2017-10-05T15:36:05.793Z,1.12
2017-10-05T15:38:33.666Z,3.72
2017-10-05T15:41:01.319Z,2.17
2017-10-05T15:43:28.968Z,7.93
2017-10-05T15:45:57.410Z,0.95
2017-10-05T15:48:25.102Z,3.78
2017-10-05T15:50:55.553Z,10.07
2017-10-05T15:53:23.126Z,5.47
2017-10-05T15:55:50.752Z,7.82
2017-10-05T15:58:19.131Z,5.10
2017-10-05T16:00:46.797Z,8.25
2017-10-05T16:03:14.415Z,3.62
2017-10-05T16:05:42.031Z,5.82
2017-10-05T16:08:09.607Z,5.87
2017-10-05T16:10:37.234Z,3.87
2017-10-05T16:13:06.034Z,5.87
2017-10-05T16:15:34.416Z,4.70
2017-10-05T16:18:02.808Z,12.30
2017-10-05T16:20:30.415Z,8.55
2017-10-05T16:22:58.040Z,3.10
2017-10-05T16:25:25.678Z,21.37
2017-10-05T16:27:53.322Z,7.82
2017-10-05T16:30:20.927Z,2.95
2017-10-05T16:32:48.719Z,11.15
2017-10-05T16:35:16.478Z,1.73
2017-10-05T16:37:44.093Z,2.70
2017-10-05T16:40:11.719Z,4.28
2017-10-05T16:42:39.341Z,9.98
2017-10-05T16:45:06.926Z,8.43
2017-10-05T16:47:35.115Z,2.53
2017-10-05T16:50:03.633Z,2.80
2017-10-05T16:52:31.492Z,10.15
2017-10-05T16:55:00.114Z,2.65
2017-10-05T16:57:28.045Z,1.35
2017-10-05T16:59:55.881Z,1.08
2017-10-05T17:02:23.498Z,1.70
2017-10-05T17:04:51.203Z,1.10
2017-10-05T17:07:19.179Z,5.05
2017-10-05T17:09:46.798Z,8.05
2017-10-05T17:12:14.380Z,1.00
2017-10-05T17:14:42.311Z,1.10
2017-10-05T17:17:10.085Z,1.20
2017-10-05T17:19:37.742Z,3.92
2017-10-05T17:22:05.267Z,2.28
2017-10-05T17:24:33.096Z,1.12
2017-10-05T17:27:01.050Z,0.60
2017-10-05T17:29:29.030Z,3.08
2017-10-05T17:31:56.632Z,3.60
2017-10-05T17:34:24.242Z,0.65
2017-10-05T17:36:51.866Z,2.15
2017-10-05T17:39:20.659Z,2.28
2017-10-05T17:41:48.303Z,0.90
2017-10-05T17:44:15.908Z,1.00
2017-10-05T17:46:43.496Z,0.95
2017-10-05T17:49:11.160Z,2.75
2017-10-05T17:51:39.072Z,6.12
2017-10-05T17:54:09.619Z,12.77
2017-10-05T17:56:37.250Z,4.82
2017-10-05T17:59:06.843Z,6.95
2017-10-05T18:01:35.990Z,1.50
2017-10-05T18:04:03.582Z,4.50
2017-10-05T18:06:31.182Z,2.53
2017-10-05T18:08:59.597Z,0.77
2017-10-05T18:11:28.918Z,4.20
2017-10-05T18:13:56.543Z,1.83
2017-10-05T18:16:24.157Z,2.97
2017-10-05T18:18:51.777Z,2.15
2017-10-05T18:21:19.395Z,7.90
2017-10-05T18:23:47.011Z,2.97
2017-10-05T18:26:15.387Z,2.65
2017-10-05T18:28:43.775Z,6.05
2017-10-05T18:31:11.386Z,0.85
2017-10-05T18:33:39.762Z,2.42
2017-10-05T18:36:07.958Z,0.70
2017-10-05T18:38:35.543Z,4.40
2017-10-05T18:41:03.265Z,2.97
2017-10-05T18:43:31.666Z,3.33
2017-10-05T18:45:59.405Z,4.35
2017-10-05T18:48:27.193Z,4.20
2017-10-05T18:50:54.823Z,6.53
2017-10-05T18:53:22.386Z,2.35
2017-10-05T18:55:50.791Z,4.30
2017-10-05T18:58:18.386Z,1.37
2017-10-05T19:00:45.922Z,8.90
2017-10-05T19:03:13.559Z,1.73
2017-10-05T19:05:41.167Z,0.90
2017-10-05T19:08:08.799Z,4.40
2017-10-05T19:10:36.477Z,5.32
2017-10-05T19:13:04.112Z,13.70
2017-10-05T19:15:32.512Z,3.83
2017-10-05T19:18:00.123Z,3.83
2017-10-05T19:20:27.761Z,2.33
2017-10-05T19:22:55.369Z,1.23
2017-10-05T19:25:23.768Z,3.50
2017-10-05T19:27:51.370Z,1.23
2017-10-05T19:30:18.983Z,1.52
2017-10-05T19:32:46.595Z,3.65
2017-10-05T19:35:14.253Z,3.65
2017-10-05T19:37:42.742Z,4.82
2017-10-05T19:40:10.315Z,1.92
2017-10-05T19:42:38.147Z,1.67
2017-10-05T19:45:05.746Z,4.60
2017-10-05T19:47:33.355Z,1.20
2017-10-05T19:50:00.979Z,4.22
2017-10-05T19:52:29.317Z,2.10
2017-10-05T19:54:56.978Z,8.32
2017-10-05T19:57:24.550Z,3.53
2017-10-05T19:59:52.170Z,12.30
2017-10-05T20:02:19.781Z,2.78
2017-10-05T20:04:47.386Z,3.42
2017-10-05T20:07:14.965Z,4.28
2017-10-05T20:09:42.526Z,2.45
2017-10-05T20:12:10.134Z,7.28
2017-10-05T20:14:40.232Z,2.37
2017-10-05T20:17:13.604Z,4.50
2017-10-05T20:20:05.199Z,1.42
2017-10-05T20:22:48.814Z,8.50
2017-10-05T20:25:22.092Z,1.83
2017-10-05T20:27:59.645Z,3.08
2017-10-05T20:30:29.701Z,6.82
2017-10-05T20:33:14.070Z,3.80
2017-10-05T20:35:41.733Z,3.05
2017-10-05T20:38:09.344Z,5.82
2017-10-05T20:40:36.952Z,5.22
2017-10-05T20:43:04.558Z,8.90
2017-10-05T20:45:32.285Z,1.52
2017-10-05T20:48:00.627Z,5.28
2017-10-05T20:50:28.270Z,2.28
2017-10-05T20:52:55.881Z,4.47
2017-10-05T20:55:23.482Z,6.90
2017-10-05T20:57:51.086Z,3.42
2017-10-05T21:00:18.702Z,3.35
2017-10-05T21:02:46.316Z,3.28
2017-10-05T21:05:14.090Z,5.82
2017-10-05T21:07:41.718Z,7.43
2017-10-05T21:10:09.333Z,7.05
2017-10-05T21:12:37.705Z,4.85
2017-10-05T21:15:07.293Z,2.65
2017-10-05T21:17:34.905Z,8.45
2017-10-05T21:20:02.521Z,6.65
2017-10-05T21:22:30.145Z,4.68
2017-10-05T21:24:57.757Z,9.85
2017-10-05T21:27:26.150Z,7.95
2017-10-05T21:29:53.761Z,10.82
2017-10-05T21:32:21.366Z,5.82
2017-10-05T21:34:49.746Z,6.28
2017-10-05T21:37:18.407Z,4.78
2017-10-05T21:39:46.019Z,7.65
2017-10-05T21:42:13.601Z,7.50
2017-10-05T21:44:41.171Z,4.32
2017-10-05T21:47:08.802Z,10.00
2017-10-05T21:49:36.618Z,9.25
2017-10-05T21:52:04.246Z,6.43
2017-10-05T21:54:31.872Z,3.45
2017-10-05T21:56:59.494Z,13.20
2017-10-05T21:59:27.150Z,2.70
2017-10-05T22:01:54.725Z,10.60
2017-10-05T22:04:22.338Z,7.07
2017-10-05T22:06:49.907Z,9.55
2017-10-05T22:09:17.558Z,5.90
2017-10-05T22:11:45.177Z,13.10
2017-10-05T22:14:12.747Z,2.65
2017-10-05T22:16:40.366Z,13.48
2017-10-05T22:19:07.970Z,8.48
2017-10-05T22:21:36.351Z,6.70
2017-10-05T22:24:03.964Z,7.93
2017-10-05T22:26:32.778Z,7.00
2017-10-05T22:29:00.396Z,14.45
2017-10-05T22:31:28.001Z,7.28
2017-10-05T22:33:56.391Z,14.40
2017-10-05T22:36:24.734Z,5.82
2017-10-05T22:38:52.418Z,17.60
2017-10-05T22:41:19.990Z,8.98
2017-10-05T22:43:48.366Z,10.82
2017-10-05T22:46:16.699Z,10.60
2017-10-05T22:48:44.314Z,6.05
2017-10-05T22:51:11.885Z,20.15
2017-10-05T22:53:39.539Z,15.25
2017-10-05T22:56:07.879Z,5.40
2017-10-05T22:58:35.424Z,9.65
2017-10-05T23:01:03.055Z,5.47
2017-10-05T23:03:30.707Z,9.13
2017-10-05T23:05:58.276Z,19.12
2017-10-05T23:08:25.910Z,11.27
2017-10-05T23:10:54.277Z,19.17
2017-10-05T23:13:21.886Z,5.47
2017-10-05T23:15:49.494Z,13.23
2017-10-05T23:18:17.108Z,11.30
2017-10-05T23:20:44.691Z,11.60
2017-10-05T23:23:12.266Z,10.95
2017-10-05T23:25:39.831Z,4.32
2017-10-05T23:28:07.408Z,13.07
2017-10-05T23:30:34.986Z,12.80
2017-10-05T23:33:03.350Z,9.32
2017-10-05T23:35:31.734Z,20.40
2017-10-05T23:38:00.119Z,14.15
2017-10-05T23:40:27.741Z,22.70
2017-10-05T23:42:55.304Z,7.70
2017-10-05T23:45:22.916Z,9.60
2017-10-05T23:47:50.526Z,17.83
2017-10-05T23:50:18.141Z,11.80
2017-10-05T23:52:45.717Z,13.88
2017-10-05T23:55:13.334Z,14.05
2017-10-05T23:57:41.718Z,13.82
